hintergrundbild

 METAR AND TAF INFORMATION
METAR FOR LEIB
ADDS - METARS form results

(1850 UTC 03 December 2021)
Data provider http://aviationweather.gov/metar/data/
 
METAR text: LEIB 031830Z 00000KT 9999 FEW045 09/04 Q1021 NOSIG
Conditions at: LEIB (IBIZA/ES CODOLA , ES) observed 1830 UTC 03 December 2021
Temperature: 9.0°C (48°F)
Dewpoint: 4.0°C (39°F) [RH = 71%]
Pressure (altimeter): 30.15 inches Hg (1021.0 mb)
Winds: calm
Visibility: 6 or more miles (10+ km)
Ceiling: at least 12,000 feet AGL
Clouds: few clouds at 4500 feet AGL
Weather: no significant weather observed at this time

METAR text: LEIB 031800Z 00000KT 9999 FEW045 08/05 Q1021 NOSIG
Conditions at: LEIB (IBIZA/ES CODOLA , ES) observed 1800 UTC 03 December 2021
Temperature: 8.0°C (46°F)
Dewpoint: 5.0°C (41°F) [RH = 81%]
Pressure (altimeter): 30.15 inches Hg (1021.0 mb)
Winds: calm
Visibility: 6 or more miles (10+ km)
Ceiling: at least 12,000 feet AGL
Clouds: few clouds at 4500 feet AGL
Weather: no significant weather observed at this time

Forecast for: LEIB (IBIZA/ES CODOLA , ES)
Text: TAF LEIB 031400Z 0315/0415 33010KT 9999 FEW030 TX17/0412Z TN10/0406Z
Forecast period: 1500 to 1600 UTC 03 December 2021
Forecast type: FROM: standard forecast or significant change
Winds: from the NNW (330 degrees) at 12 MPH (10 knots; 5.1 m/s)
Visibility: 6 or more miles (10+ km)
Ceiling: at least 12,000 feet AGL
Clouds: few clouds at 3000 feet AGL
Weather: no significant weather forecast for this period
Text: BECMG 0316/0318 VRB04KT
Forecast period: 1600 to 2200 UTC 03 December 2021
Forecast type: BECOMING: Conditions expected to become as follows by 1800 UTC 03 December 2021
Winds: variable direction winds at 5 MPH (4 knots; 2.1 m/s)
Visibility: 6 or more miles (10+ km)
Ceiling: at least 12,000 feet AGL
Clouds: few clouds at 3000 feet AGL
Weather: no significant weather forecast for this period
Text: BECMG 0322/0324 27010KT
Forecast period: 2200 UTC 03 December 2021 to 1500 UTC 04 December 2021
Forecast type: BECOMING: Conditions expected to become as follows by 0000 UTC 04 December 2021
Winds: from the W (270 degrees) at 12 MPH (10 knots; 5.1 m/s)
Visibility: 6 or more miles (10+ km)
Ceiling: at least 12,000 feet AGL
Clouds: few clouds at 3000 feet AGL
Weather: no significant weather forecast for this period

 AIRPORT MAP

 RUNWAY INFORMATION
Runway 06 Runway length 9186 ft Runway width 148 ft
Runway elevation 13 ft Runway displaced threshold 0 ft Runway heading 62
Runway 24 Runway length 9186 ft Runway width 148 ft
Runway elevation 16 ft Runway displaced threshold 0 ft Runway heading 242

 AIRPORT FREQUENCIES
Type APP Name PALMA APP Frequency 118.125 MHZ
Type APP Name APP Frequency 119.8 MHZ
Type ATIS Name ATIS Frequency 117.8 MHZ
Type GND Name GND Frequency 121.8 MHZ
Type TWR Name TWR Frequency 118.5 MHZ

 AIRPORT NEAR NAVIGATION AIDS
Type VOR-DME Name Ibiza Frequency 117800 KHZ
Type NDB Name Ibiza Frequency 394 KHZ



Impressum